Time;durP1;ratioP1;P1;durP2;ratioP2;P2;SDS_P1;SDS_P2;PMS_P1;PMS_P2;Temp;Humidity;BMP_temperature;BMP_pressure;BME280_temperature;BME280_humidity;BME280_pressure;Samples;Min_cycle;Max_cycle;Signal;HPM_P1;HPM_P2
2021/09/14 00:00:15;;;;;;;6.75;4.20;;;;;;;11.31;100.00;93111.59;2122636;27;20049;-76
2021/09/14 00:01:16;;;;;;;9.85;4.70;;;;;;;11.34;100.00;93111.50;2118548;28;20024;-78
2021/09/14 00:02:17;;;;;;;6.40;4.40;;;;;;;11.38;100.00;93102.63;2118466;27;20043;-78
2021/09/14 00:03:19;;;;;;;5.60;4.20;;;;;;;11.35;100.00;93110.31;2120678;27;20800;-78
2021/09/14 00:04:20;;;;;;;7.32;4.40;;;;;;;11.35;100.00;93113.00;2117331;27;20488;-82
2021/09/14 00:05:21;;;;;;;8.73;4.75;;;;;;;11.35;100.00;93110.31;2120125;27;20027;-79
2021/09/14 00:06:23;;;;;;;5.88;4.90;;;;;;;11.32;100.00;93110.41;2118132;27;20361;-77
2021/09/14 00:07:24;;;;;;;20.48;4.80;;;;;;;11.33;100.00;93109.25;2106873;28;20055;-80
2021/09/14 00:08:25;;;;;;;6.72;4.30;;;;;;;11.39;100.00;93104.13;2115088;28;20024;-80
2021/09/14 00:09:26;;;;;;;7.90;5.03;;;;;;;11.44;100.00;93111.66;2106719;28;20047;-79
2021/09/14 00:10:27;;;;;;;6.50;4.13;;;;;;;11.47;100.00;93103.53;2118601;27;20023;-79
2021/09/14 00:11:28;;;;;;;5.35;3.85;;;;;;;11.37;100.00;93107.25;2114589;28;21282;-80
2021/09/14 00:12:29;;;;;;;7.88;4.28;;;;;;;11.43;100.00;93104.81;2114563;28;20024;-78
2021/09/14 00:13:30;;;;;;;4.18;3.78;;;;;;;11.46;100.00;93099.38;2110457;28;20479;-81
2021/09/14 00:14:31;;;;;;;6.53;4.47;;;;;;;11.46;100.00;93104.72;2106213;28;20047;-79
2021/09/14 00:15:32;;;;;;;5.88;4.38;;;;;;;11.47;100.00;93108.13;2116891;27;20026;-78
2021/09/14 00:16:33;;;;;;;4.72;4.10;;;;;;;11.35;100.00;93096.94;2124394;27;20062;-83
2021/09/14 00:17:34;;;;;;;6.03;4.30;;;;;;;11.39;100.00;93102.22;2124382;27;20015;-80
2021/09/14 00:18:35;;;;;;;7.25;4.30;;;;;;;11.38;100.00;93098.03;2123821;27;20030;-80
2021/09/14 00:19:36;;;;;;;5.40;4.45;;;;;;;11.39;100.00;93104.88;2115209;28;20035;-80
2021/09/14 00:20:37;;;;;;;5.32;3.67;;;;;;;11.46;100.00;93094.00;2116115;27;20020;-81
2021/09/14 00:21:39;;;;;;;9.07;4.45;;;;;;;11.46;100.00;93096.69;2115161;28;20023;-80
2021/09/14 00:22:40;;;;;;;4.10;3.80;;;;;;;11.42;100.00;93101.38;2106518;28;20059;-78
2021/09/14 00:23:40;;;;;;;7.43;3.95;;;;;;;11.43;100.00;93099.44;2106853;28;20031;-79
2021/09/14 00:24:41;;;;;;;6.90;4.20;;;;;;;11.37;100.00;93095.75;2115390;28;20414;-82
2021/09/14 00:25:42;;;;;;;5.47;3.88;;;;;;;11.30;100.00;93099.38;2123217;27;20026;-79
2021/09/14 00:26:43;;;;;;;6.68;3.95;;;;;;;11.35;100.00;93093.50;2123845;27;20128;-82
2021/09/14 00:27:44;;;;;;;5.95;3.97;;;;;;;11.34;100.00;93089.34;2120512;27;20034;-81
2021/09/14 00:28:45;;;;;;;5.40;4.35;;;;;;;11.33;100.00;93091.28;2106755;28;20016;-81
2021/09/14 00:29:46;;;;;;;4.07;3.67;;;;;;;11.27;100.00;93086.84;2115340;28;20024;-82
2021/09/14 00:30:47;;;;;;;5.47;4.13;;;;;;;11.30;100.00;93091.34;2114981;28;20035;-80
2021/09/14 00:31:48;;;;;;;5.47;3.85;;;;;;;11.30;100.00;93088.69;2115241;28;20095;-81
2021/09/14 00:32:49;;;;;;;6.13;3.78;;;;;;;11.22;100.00;93085.41;2114985;28;20031;-80
2021/09/14 00:33:50;;;;;;;8.13;3.42;;;;;;;11.20;100.00;93093.13;2106913;28;20052;-80
2021/09/14 00:34:51;;;;;;;6.22;4.03;;;;;;;11.19;100.00;93088.19;2106975;28;20427;-80
2021/09/14 00:35:52;;;;;;;6.60;3.85;;;;;;;11.28;100.00;93088.31;2106671;28;20591;-81
2021/09/14 00:36:53;;;;;;;6.03;4.10;;;;;;;11.27;100.00;93086.84;2098261;28;20074;-83
2021/09/14 00:37:54;;;;;;;7.63;4.15;;;;;;;11.33;100.00;93082.50;2096558;28;20150;-82
2021/09/14 00:38:55;;;;;;;4.03;3.63;;;;;;;11.24;100.00;93080.41;2115035;28;20024;-80
2021/09/14 00:39:56;;;;;;;4.00;3.53;;;;;;;11.25;100.00;93084.59;2115137;28;20468;-81
2021/09/14 00:40:57;;;;;;;3.97;3.50;;;;;;;11.18;100.00;93090.09;2112093;28;20031;-83
2021/09/14 00:41:58;;;;;;;5.13;4.05;;;;;;;11.25;100.00;93081.16;2114959;28;20019;-79
2021/09/14 00:42:58;;;;;;;6.60;4.28;;;;;;;11.17;100.00;93087.84;2116224;27;20019;-83
2021/09/14 00:44:01;;;;;;;5.35;3.67;;;;;;;11.19;100.00;93085.50;2123601;27;20372;-77
2021/09/14 00:45:04;;;;;;;4.45;3.90;;;;;;;11.13;100.00;93084.50;2123265;27;20383;-79
2021/09/14 00:46:05;;;;;;;6.22;3.83;;;;;;;11.10;100.00;93078.81;2126156;27;20016;-79
2021/09/14 00:47:06;;;;;;;6.22;4.35;;;;;;;11.20;100.00;93085.09;2131048;27;20023;-82
2021/09/14 00:48:07;;;;;;;6.85;4.63;;;;;;;11.22;100.00;93084.66;2123804;27;20023;-80
2021/09/14 00:49:08;;;;;;;9.25;4.25;;;;;;;11.19;100.00;93082.81;2124277;27;20364;-80
2021/09/14 00:50:10;;;;;;;7.60;4.40;;;;;;;11.18;100.00;93078.66;2116446;27;20516;-81
2021/09/14 00:51:11;;;;;;;5.82;4.22;;;;;;;11.07;100.00;93077.00;2115134;28;20028;-80
2021/09/14 00:52:12;;;;;;;5.60;4.38;;;;;;;11.13;100.00;93071.13;2106541;28;20031;-80
2021/09/14 00:53:14;;;;;;;5.22;4.18;;;;;;;11.09;100.00;93069.28;2106584;28;20042;-83
2021/09/14 00:54:16;;;;;;;9.90;4.32;;;;;;;11.05;100.00;93071.31;2115161;28;20032;-78
2021/09/14 00:55:17;;;;;;;5.00;4.30;;;;;;;11.05;100.00;93073.97;2115706;28;20571;-79
2021/09/14 00:56:19;;;;;;;5.63;4.10;;;;;;;11.04;100.00;93083.19;2114921;28;20058;-79
2021/09/14 00:57:20;;;;;;;8.43;4.53;;;;;;;10.95;100.00;93071.56;2106491;28;20511;-80
2021/09/14 00:58:21;;;;;;;5.35;4.00;;;;;;;10.95;100.00;93072.31;2114961;28;20031;-78
2021/09/14 00:59:21;;;;;;;5.13;4.47;;;;;;;10.93;100.00;93076.56;2111384;28;20134;-79
2021/09/14 01:00:23;;;;;;;6.75;4.50;;;;;;;10.98;100.00;93076.84;2115052;28;20015;-82
2021/09/14 01:01:23;;;;;;;4.93;4.00;;;;;;;11.00;100.00;93071.81;2123285;27;20403;-81
2021/09/14 01:02:24;;;;;;;6.38;4.55;;;;;;;10.98;100.00;93068.06;2123439;27;20034;-83
2021/09/14 01:03:25;;;;;;;7.85;4.80;;;;;;;11.01;100.00;93069.88;2124009;27;20022;-81
2021/09/14 01:04:27;;;;;;;7.05;4.90;;;;;;;10.99;100.00;93075.66;2123318;27;20023;-80
2021/09/14 01:05:29;;;;;;;5.57;4.50;;;;;;;11.00;100.00;93074.47;2123303;27;20563;-79
2021/09/14 01:06:31;;;;;;;5.00;4.53;;;;;;;10.98;100.00;93071.50;2122092;27;20019;-82
2021/09/14 01:07:32;;;;;;;5.47;4.35;;;;;;;11.02;100.00;93074.09;2122087;27;20042;-78
2021/09/14 01:08:35;;;;;;;8.60;4.63;;;;;;;10.92;100.00;93067.81;2123986;27;20484;-81
2021/09/14 01:09:37;;;;;;;7.38;4.60;;;;;;;10.94;100.00;93076.16;2124002;27;20068;-80
2021/09/14 01:10:38;;;;;;;6.85;4.63;;;;;;;10.99;100.00;93075.66;2117512;27;20430;-77
2021/09/14 01:11:41;;;;;;;6.05;4.60;;;;;;;10.96;100.00;93073.81;2107231;28;20039;-81
2021/09/14 01:12:42;;;;;;;5.65;4.80;;;;;;;10.94;100.00;93075.41;2098542;28;20035;-82
2021/09/14 01:13:43;;;;;;;6.65;4.40;;;;;;;10.90;100.00;93075.50;2102164;28;20382;-82
2021/09/14 01:14:55;;;;;;;8.18;4.90;;;;;;;10.82;100.00;93074.91;2123458;27;20069;-80
2021/09/14 01:16:04;;;;;;;7.63;4.60;;;;;;;10.87;100.00;93081.69;2100601;28;20028;-82
2021/09/14 01:17:04;;;;;;;6.80;5.00;;;;;;;10.88;100.00;93085.09;2104181;27;20442;-78
2021/09/14 01:18:06;;;;;;;12.30;5.07;;;;;;;10.95;100.00;93075.00;2123184;27;20039;-83
2021/09/14 01:19:08;;;;;;;5.10;4.45;;;;;;;10.94;100.00;93075.41;2123467;27;20019;-80
2021/09/14 01:20:10;;;;;;;5.53;4.47;;;;;;;10.88;100.00;93080.50;2111408;28;20443;-82
2021/09/14 01:21:18;;;;;;;11.10;4.88;;;;;;;10.82;100.00;93076.84;2121489;27;20530;-81
2021/09/14 01:22:19;;;;;;;9.38;4.45;;;;;;;10.82;100.00;93085.59;2114989;28;20106;-81
2021/09/14 01:23:20;;;;;;;5.55;4.55;;;;;;;10.81;100.00;93078.75;2115235;28;20054;-80
2021/09/14 01:24:21;;;;;;;6.30;4.78;;;;;;;10.86;100.00;93076.75;2125408;27;20034;-83
2021/09/14 01:25:24;;;;;;;4.40;4.00;;;;;;;10.82;100.00;93076.84;2122384;27;20027;-82
2021/09/14 01:26:26;;;;;;;5.82;4.32;;;;;;;10.84;100.00;93071.81;2115041;28;20019;-80
2021/09/14 01:27:27;;;;;;;6.35;4.63;;;;;;;10.81;100.00;93068.06;2123718;27;20015;-82
2021/09/14 01:28:28;;;;;;;7.20;4.63;;;;;;;10.84;100.00;93077.16;2123045;27;20607;-80
2021/09/14 01:30:48;;;;;;;5.10;4.60;;;;;;;10.79;100.00;93078.41;2109019;28;20063;-77
2021/09/14 01:31:49;;;;;;;4.38;3.97;;;;;;;10.79;100.00;93080.34;2115254;28;20416;-78
2021/09/14 01:32:53;;;;;;;6.47;4.10;;;;;;;10.75;100.00;93079.66;2124616;27;20038;-81
2021/09/14 01:33:54;;;;;;;3.97;3.58;;;;;;;10.75;100.00;93075.06;2123232;27;20065;-81
2021/09/14 01:35:02;;;;;;;4.80;4.15;;;;;;;10.71;100.00;93079.00;2118948;27;20520;-80
2021/09/14 01:36:04;;;;;;;4.43;4.03;;;;;;;10.73;100.00;93079.34;2123179;27;20023;-78
2021/09/14 01:37:06;;;;;;;5.85;3.83;;;;;;;10.69;100.00;93078.66;2123133;27;20018;-82
2021/09/14 01:38:07;;;;;;;10.25;4.20;;;;;;;10.66;100.00;93074.16;2118328;27;20095;-79
2021/09/14 01:39:08;;;;;;;3.78;3.42;;;;;;;10.64;100.00;93079.91;2121781;27;20022;-79
2021/09/14 01:40:10;;;;;;;5.20;3.97;;;;;;;10.68;100.00;93074.50;2123187;27;20470;-79
2021/09/14 01:41:11;;;;;;;5.15;3.72;;;;;;;10.74;100.00;93072.81;2123302;27;20030;-83
2021/09/14 01:42:12;;;;;;;5.85;4.18;;;;;;;10.76;100.00;93076.59;2123142;27;20015;-79
2021/09/14 01:43:14;;;;;;;4.97;4.30;;;;;;;10.66;100.00;93074.88;2119198;27;20047;-82
2021/09/14 01:44:15;;;;;;;5.28;4.35;;;;;;;10.66;100.00;93074.16;2118556;27;20080;-81
2021/09/14 01:45:16;;;;;;;5.95;4.03;;;;;;;10.72;100.00;93083.19;2106641;28;20157;-77
2021/09/14 01:46:17;;;;;;;5.28;4.30;;;;;;;10.69;100.00;93079.41;2114653;28;20383;-77
2021/09/14 01:47:18;;;;;;;4.40;4.07;;;;;;;10.69;100.00;93084.00;2115221;28;20062;-80
2021/09/14 01:48:19;;;;;;;4.75;4.35;;;;;;;10.61;100.00;93078.06;2106004;28;20012;-81
2021/09/14 01:49:20;;;;;;;4.65;4.25;;;;;;;10.66;100.00;93082.91;2106142;28;20396;-79
2021/09/14 01:50:21;;;;;;;7.38;4.30;;;;;;;10.65;100.00;93078.75;2111397;28;20026;-80
2021/09/14 01:51:22;;;;;;;6.25;4.15;;;;;;;10.67;100.00;93081.75;2114745;28;20028;-83
2021/09/14 01:52:26;;;;;;;5.63;4.43;;;;;;;10.67;100.00;93075.63;2123787;27;20379;-81
2021/09/14 01:53:27;;;;;;;9.05;4.30;;;;;;;10.71;100.00;93085.13;2123837;27;20034;-80
2021/09/14 01:54:28;;;;;;;6.93;4.13;;;;;;;10.69;100.00;93079.41;2130888;27;20086;-78
2021/09/14 01:55:30;;;;;;;4.70;4.30;;;;;;;10.65;100.00;93083.34;2124992;27;20030;-81
2021/09/14 01:56:31;;;;;;;6.28;5.20;;;;;;;10.61;100.00;93080.00;2123400;27;20023;-79
2021/09/14 01:57:34;;;;;;;8.00;4.63;;;;;;;10.59;100.00;93080.41;2123192;27;20495;-78
2021/09/14 01:58:35;;;;;;;4.82;4.43;;;;;;;10.59;100.00;93083.84;2123185;27;20023;-81
2021/09/14 01:59:38;;;;;;;5.25;4.32;;;;;;;10.64;100.00;93074.56;2122978;27;20488;-81
2021/09/14 02:00:45;;;;;;;4.57;4.13;;;;;;;10.67;100.00;93084.44;2108999;28;20511;-83
2021/09/14 02:01:55;;;;;;;6.78;4.47;;;;;;;10.66;100.00;93080.25;2107005;28;20024;-77
2021/09/14 02:04:13;;;;;;;6.32;4.25;;;;;;;10.56;100.00;93078.56;2106047;28;20505;-81
2021/09/14 02:07:36;;;;;;;;;;;;;;;10.45;100.00;93084.16;2148923;27;20113;-80
2021/09/14 02:43:57;;;;;;;5.60;4.38;;;;;;;10.22;100.00;93062.84;2142763;27;20018;-83
2021/09/14 02:58:55;;;;;;;5.03;4.30;;;;;;;10.19;100.00;93063.72;2139234;27;20053;-79
2021/09/14 02:59:56;;;;;;;7.43;4.80;;;;;;;10.20;100.00;93057.94;2140647;27;20029;-80
2021/09/14 03:00:57;;;;;;;5.18;3.72;;;;;;;10.23;100.00;93064.38;2147566;27;20022;-79
2021/09/14 03:01:59;;;;;;;6.05;4.35;;;;;;;10.18;100.00;93059.50;2131691;27;20019;-81
2021/09/14 03:03:00;;;;;;;7.10;4.13;;;;;;;10.14;100.00;93064.94;2132070;27;20078;-78
2021/09/14 03:04:05;;;;;;;5.13;4.57;;;;;;;10.02;100.00;93058.31;2139239;27;20079;-80
2021/09/14 03:05:06;;;;;;;4.95;4.43;;;;;;;10.09;100.00;93060.81;2139240;27;20498;-78
2021/09/14 03:06:09;;;;;;;4.50;4.10;;;;;;;10.13;100.00;93066.09;2134849;27;20417;-80
2021/09/14 03:07:10;;;;;;;6.85;4.10;;;;;;;10.19;100.00;93059.13;2130479;27;20531;-81
2021/09/14 03:08:11;;;;;;;6.82;4.50;;;;;;;10.24;100.00;93068.56;2121370;27;20043;-79
2021/09/14 03:09:12;;;;;;;5.07;4.57;;;;;;;10.12;100.00;93067.25;2121395;28;20019;-81
2021/09/14 03:10:13;;;;;;;5.50;4.78;;;;;;;10.23;100.00;93073.16;2121292;28;20023;-79
2021/09/14 03:11:16;;;;;;;6.00;3.90;;;;;;;10.22;100.00;93065.53;2104393;28;20388;-80
2021/09/14 03:12:17;;;;;;;4.72;4.32;;;;;;;10.17;100.00;93063.34;2100291;28;20111;-81
2021/09/14 03:13:18;;;;;;;5.18;4.68;;;;;;;10.12;100.00;93055.84;2112741;28;20499;-81
2021/09/14 03:14:19;;;;;;;5.15;4.60;;;;;;;10.09;100.00;93057.41;2129836;27;20047;-80
2021/09/14 03:15:20;;;;;;;5.18;4.35;;;;;;;9.99;100.00;93053.78;2130829;27;20010;-83
2021/09/14 03:16:21;;;;;;;5.05;4.60;;;;;;;9.94;100.00;93056.19;2129891;27;20093;-83
2021/09/14 03:17:22;;;;;;;4.55;4.20;;;;;;;10.06;100.00;93063.59;2129709;27;20181;-82
2021/09/14 03:18:23;;;;;;;5.18;4.70;;;;;;;10.01;100.00;93054.16;2126400;27;20023;-83
2021/09/14 03:19:24;;;;;;;5.18;4.18;;;;;;;9.93;100.00;93055.44;2128313;27;20026;-78
2021/09/14 03:20:25;;;;;;;6.40;4.65;;;;;;;9.96;100.00;93053.84;2130537;27;20017;-81
2021/09/14 03:21:25;;;;;;;4.70;4.30;;;;;;;9.95;100.00;93053.09;2133341;27;20025;-82
2021/09/14 03:22:26;;;;;;;6.45;4.72;;;;;;;9.91;100.00;93046.34;2123923;27;20727;-79
2021/09/14 03:23:27;;;;;;;4.53;4.13;;;;;;;9.94;100.00;93050.88;2115495;28;20032;-81
2021/09/14 03:24:28;;;;;;;7.05;4.68;;;;;;;9.93;100.00;93057.38;2110852;28;20020;-79
2021/09/14 03:25:30;;;;;;;5.05;4.55;;;;;;;9.95;100.00;93047.03;2110118;28;20030;-79
2021/09/14 03:26:31;;;;;;;4.85;4.35;;;;;;;9.96;100.00;93057.28;2107435;28;20027;-81
2021/09/14 03:27:33;;;;;;;6.95;4.72;;;;;;;9.99;100.00;93048.44;2116675;27;20028;-83
2021/09/14 03:28:35;;;;;;;7.75;4.28;;;;;;;9.97;100.00;93047.38;2133208;27;20025;-79
2021/09/14 03:29:36;;;;;;;5.65;4.57;;;;;;;9.99;100.00;93055.72;2123976;27;20031;-79
2021/09/14 03:30:37;;;;;;;4.57;4.18;;;;;;;9.92;100.00;93048.63;2115679;28;20054;-81
2021/09/14 03:31:39;;;;;;;9.18;4.70;;;;;;;9.94;100.00;93048.94;2115705;27;20510;-80
2021/09/14 03:32:40;;;;;;;7.00;4.85;;;;;;;9.95;100.00;93049.69;2124065;27;20030;-81
2021/09/14 03:33:41;;;;;;;6.53;4.60;;;;;;;9.95;100.00;93058.44;2125797;27;20054;-79
2021/09/14 03:34:43;;;;;;;5.45;4.30;;;;;;;9.99;100.00;93051.13;2115597;28;20474;-82
2021/09/14 03:35:44;;;;;;;5.72;4.45;;;;;;;9.98;100.00;93054.97;2115557;28;20043;-80
2021/09/14 03:36:45;;;;;;;5.10;4.60;;;;;;;9.95;100.00;93053.09;2124800;27;20022;-83
2021/09/14 03:37:46;;;;;;;7.90;4.65;;;;;;;9.96;100.00;93053.84;2107360;28;20031;-80
2021/09/14 03:38:47;;;;;;;4.55;4.15;;;;;;;9.95;100.00;93055.78;2107352;28;20046;-80
2021/09/14 03:39:48;;;;;;;5.03;4.60;;;;;;;9.93;100.00;93058.13;2124793;27;20015;-83
2021/09/14 03:40:49;;;;;;;5.28;4.72;;;;;;;10.03;100.00;93057.16;2124021;27;20038;-79
2021/09/14 03:41:53;;;;;;;6.25;4.90;;;;;;;9.94;100.00;93054.28;2115565;28;20019;-78
2021/09/14 03:42:53;;;;;;;6.05;4.85;;;;;;;9.92;100.00;93051.28;2115883;27;20027;-80
2021/09/14 03:43:54;;;;;;;7.28;4.95;;;;;;;9.92;100.00;93050.50;2123944;27;20459;-79
2021/09/14 03:44:55;;;;;;;6.00;4.60;;;;;;;9.92;100.00;93051.28;2115405;28;20061;-83
2021/09/14 03:45:56;;;;;;;6.32;4.82;;;;;;;9.97;100.00;93048.13;2115759;28;20030;-81
2021/09/14 03:46:57;;;;;;;7.45;4.85;;;;;;;9.92;100.00;93045.16;2116875;27;20024;-77
2021/09/14 03:47:58;;;;;;;5.75;4.68;;;;;;;9.86;100.00;93044.16;2132380;27;20046;-78
2021/09/14 03:49:00;;;;;;;5.45;5.05;;;;;;;9.87;100.00;93045.66;2120007;27;20019;-81
2021/09/14 03:50:01;;;;;;;5.32;4.80;;;;;;;9.80;100.00;93049.97;2121175;27;20114;-80
2021/09/14 03:51:02;;;;;;;6.30;4.85;;;;;;;9.81;100.00;93042.72;2133192;27;20018;-81
2021/09/14 03:52:03;;;;;;;7.25;4.95;;;;;;;9.83;100.00;93043.06;2133144;27;20025;-79
2021/09/14 03:53:05;;;;;;;5.03;4.63;;;;;;;9.82;100.00;93044.97;2123755;27;20088;-82
2021/09/14 03:54:06;;;;;;;5.50;4.85;;;;;;;9.88;100.00;93042.59;2123748;27;20019;-81
2021/09/14 03:55:08;;;;;;;6.53;5.30;;;;;;;9.84;100.00;93047.25;2115577;27;20111;-81
2021/09/14 03:56:09;;;;;;;5.18;4.72;;;;;;;9.87;100.00;93041.06;2124124;27;20069;-82
2021/09/14 03:57:10;;;;;;;5.30;4.80;;;;;;;9.86;100.00;93044.16;2121131;27;21736;-81
2021/09/14 03:58:11;;;;;;;4.88;4.30;;;;;;;9.87;100.00;93038.41;2115239;28;20031;-80
2021/09/14 03:59:12;;;;;;;4.93;4.43;;;;;;;9.88;100.00;93039.16;2107057;28;20022;-81
2021/09/14 04:00:14;;;;;;;6.70;4.75;;;;;;;9.77;100.00;93042.03;2118672;27;20042;-81
2021/09/14 04:01:14;;;;;;;8.65;4.60;;;;;;;9.78;100.00;93036.28;2129500;27;20023;-84
2021/09/14 04:02:25;;;;;;;6.68;4.82;;;;;;;9.77;100.00;93042.03;2124433;27;20508;-78
2021/09/14 04:03:38;;;;;;;;;;;;;;;9.72;100.00;93045.94;2115711;28;20032;-81
2021/09/14 04:05:01;;;;;;;;;;;;;;;9.84;100.00;93041.91;2124689;27;19911;-80
2021/09/14 04:07:36;;;;;;;;;;;;;;;9.80;100.00;93041.22;2133306;27;19963;-80
2021/09/14 04:08:52;;;;;;;;;;;;;;;9.81;100.00;93042.72;2124297;27;19962;-82
2021/09/14 04:09:53;;;;;;;;;;;;;;;9.77;100.00;93032.13;2109236;28;19908;-81
2021/09/14 04:10:56;;;;;;;;;;;;;;;9.79;100.00;93039.72;2107610;28;19977;-79
2021/09/14 04:11:57;;;;;;;;;;;;;;;9.81;100.00;93037.38;2116090;28;20341;-79
2021/09/14 04:12:58;;;;;;;;;;;;;;;9.78;100.00;93038.19;2107187;28;19915;-83
2021/09/14 04:13:59;;;;;;;;;;;;;;;9.68;100.00;93039.91;2116005;27;19908;-80
2021/09/14 04:15:00;;;;;;;;;;;;;;;9.70;100.00;93042.16;2133452;27;19907;-82
2021/09/14 04:16:00;;;;;;;;;;;;;;;9.63;100.00;93045.75;2124446;27;20428;-78
2021/09/14 04:17:01;;;;;;;;;;;;;;;9.63;100.00;93040.41;2124333;27;19907;-82
2021/09/14 04:18:03;;;;;;;;;;;;;;;9.70;100.00;93047.50;2115483;28;19941;-81
2021/09/14 04:19:04;;;;;;;;;;;;;;;9.63;100.00;93051.06;2115990;27;19930;-81
2021/09/14 04:20:05;;;;;;;;;;;;;;;9.65;100.00;93048.75;2121131;27;20276;-84
2021/09/14 04:21:06;;;;;;;;;;;;;;;9.67;100.00;93059.03;2107361;28;19908;-83
2021/09/14 04:22:07;;;;;;;;;;;;;;;9.65;100.00;93053.31;2107414;28;19948;-78
2021/09/14 04:23:07;;;;;;;;;;;;;;;9.57;100.00;93050.81;2107240;28;20498;-83
2021/09/14 04:24:08;;;;;;;;;;;;;;;9.57;100.00;93050.81;2115785;28;20284;-80
2021/09/14 04:25:09;;;;;;;;;;;;;;;9.56;100.00;93059.97;2115486;28;19908;-82
2021/09/14 04:26:10;;;;;;;;;;;;;;;9.60;100.00;93051.91;2118538;27;19919;-84
2021/09/14 04:27:11;;;;;;;;;;;;;;;9.66;100.00;93049.50;2125950;27;20540;-79
2021/09/14 04:28:12;;;;;;;;;;;;;;;9.66;100.00;93044.16;2131479;27;20282;-78
2021/09/14 04:29:13;;;;;;;;;;;;;;;9.65;100.00;93053.31;2120639;27;20284;-78
2021/09/14 04:30:14;;;;;;;;;;;;;;;9.62;100.00;93051.50;2113497;28;19923;-79
2021/09/14 04:31:14;;;;;;;;;;;;;;;9.69;100.00;93043.34;2124639;27;20256;-80
2021/09/14 04:32:15;;;;;;;;;;;;;;;9.57;100.00;93044.72;2124893;27;19907;-80
2021/09/14 04:33:16;;;;;;;;;;;;;;;9.62;100.00;93048.84;2107040;28;19908;-79
2021/09/14 04:34:17;;;;;;;;;;;;;;;9.75;100.00;93057.72;2107515;28;19915;-82
2021/09/14 04:35:18;;;;;;;;;;;;;;;9.74;100.00;93048.94;2124169;27;19969;-83
2021/09/14 04:36:19;;;;;;;;;;;;;;;9.81;100.00;93048.06;2124802;27;19907;-81
2021/09/14 04:37:19;;;;;;;;;;;;;;;9.70;100.00;93050.19;2124792;27;19947;-82
2021/09/14 04:38:20;;;;;;;;;;;;;;;9.71;100.00;93057.78;2121654;27;19946;-79
2021/09/14 04:39:21;;;;;;;;;;;;;;;9.65;100.00;93046.06;2115473;28;20395;-81
2021/09/14 04:40:22;;;;;;;;;;;;;;;9.64;100.00;93049.91;2115590;28;20571;-79
2021/09/14 04:41:23;;;;;;;;;;;;;;;9.56;100.00;93046.63;2115456;28;19908;-82
2021/09/14 04:42:23;;;;;;;;;;;;;;;9.54;100.00;93043.63;2116304;27;19911;-82
2021/09/14 04:43:24;;;;;;;;;;;;;;;9.58;100.00;93046.97;2126759;27;19911;-81
2021/09/14 04:44:25;;;;;;;;;;;;;;;9.58;100.00;93036.31;2122549;27;19940;-77
2021/09/14 04:45:26;;;;;;;;;;;;;;;9.64;100.00;93038.50;2105926;28;19908;-78
2021/09/14 04:46:26;;;;;;;;;;;;;;;9.62;100.00;93046.91;2115001;27;19908;-80
2021/09/14 04:47:27;;;;;;;;;;;;;;;9.57;100.00;93040.13;2122721;27;19972;-80
2021/09/14 04:48:28;;;;;;;;;;;;;;;9.61;100.00;93047.31;2122852;27;19954;-78
2021/09/14 04:49:29;;;;;;;;;;;;;;;9.65;100.00;93045.31;2132739;27;19915;-79
2021/09/14 04:50:30;;;;;;;;;;;;;;;9.59;100.00;93048.47;2125955;27;19976;-81
2021/09/14 04:51:31;;;;;;;;;;;;;;;9.58;100.00;93051.56;2124159;27;19911;-80
2021/09/14 04:52:32;;;;;;;;;;;;;;;9.54;100.00;93054.28;2115046;28;20364;-82
2021/09/14 04:53:33;;;;;;;;;;;;;;;9.50;100.00;93050.94;2108073;27;20588;-82
2021/09/14 04:54:34;;;;;;;;;;;;;;;9.55;100.00;93052.38;2113958;27;19950;-80
2021/09/14 04:55:35;;;;;;;;;;;;;;;9.56;100.00;93059.22;2114582;28;20596;-82
2021/09/14 04:56:36;;;;;;;;;;;;;;;9.52;100.00;93053.94;2124048;27;20012;-78
2021/09/14 04:57:36;;;;;;;;;;;;;;;9.53;100.00;93060.81;2123333;27;20413;-81
2021/09/14 04:58:39;;;;;;;;;;;;;;;9.57;100.00;93056.16;2106383;28;19911;-78
2021/09/14 04:59:40;;;;;;;;;;;;;;;9.65;100.00;93059.41;2112775;27;19997;-76
2021/09/14 05:00:42;;;;;;;;;;;;;;;9.63;100.00;93053.75;2117747;27;19919;-80
2021/09/14 05:01:43;;;;;;;;;;;;;;;9.59;100.00;93053.81;2123569;27;19907;-83
2021/09/14 05:02:44;;;;;;;;;;;;;;;9.59;100.00;93061.81;2123360;27;20437;-78
2021/09/14 05:03:45;;;;;;;;;;;;;;;9.69;100.00;93056.69;2116011;27;19911;-81
2021/09/14 05:04:46;;;;;;;;;;;;;;;9.63;100.00;93058.34;2131852;27;20399;-79
2021/09/14 05:05:47;;;;;;;;;;;;;;;9.64;100.00;93065.19;2127237;27;20010;-80
2021/09/14 05:06:48;;;;;;;;;;;;;;;9.69;100.00;93070.03;2130524;27;19919;-81
2021/09/14 05:07:49;;;;;;;;;;;;;;;9.59;100.00;93066.41;2113878;28;19911;-82
2021/09/14 05:08:49;;;;;;;;;;;;;;;9.58;100.00;93060.31;2114804;28;19912;-81
2021/09/14 05:09:53;;;;;;;;;;;;;;;9.69;100.00;93056.69;2123373;27;20375;-81
2021/09/14 05:10:54;;;;;;;;;;;;;;;9.73;100.00;93060.03;2115205;27;20006;-80
2021/09/14 05:11:54;;;;;;;;;;;;;;;9.78;100.00;93060.31;2123006;27;19907;-81
2021/09/14 05:12:55;;;;;;;;;;;;;;;9.88;100.00;93058.59;2114827;28;20029;-81
2021/09/14 05:13:56;;;;;;;;;;;;;;;9.97;100.00;93055.38;2106501;28;19908;-77
2021/09/14 05:14:57;;;;;;;;;;;;;;;9.93;100.00;93065.38;2106550;28;20272;-84
2021/09/14 05:15:58;;;;;;;;;;;;;;;9.95;100.00;93053.09;2106386;28;19996;-79
2021/09/14 05:16:59;;;;;;;;;;;;;;;9.90;100.00;93055.53;2114969;28;19919;-79
2021/09/14 05:18:08;;;;;;;;;;;;;;;9.91;100.00;93057.00;2128148;27;19911;-85
2021/09/14 05:19:10;;;;;;;;;;;;;;;9.97;100.00;93058.81;2114468;28;19908;-81
2021/09/14 05:20:12;;;;;;;;;;;;;;;9.90;100.00;93061.59;2110367;27;19981;-82
2021/09/14 05:21:13;;;;;;;;;;;;;;;9.92;100.00;93059.28;2107802;28;19912;-82
2021/09/14 05:22:19;;;;;;;;;;;;;;;9.88;100.00;93060.50;2098194;28;20623;-78
2021/09/14 05:23:32;;;;;;;;;;;;;;;9.89;100.00;93051.34;2099102;28;20578;-81
2021/09/14 05:24:33;;;;;;;;;;;;;;;9.83;100.00;93053.72;2108028;28;20262;-81
2021/09/14 05:25:34;;;;;;;;;;;;;;;9.83;100.00;93065.19;2097923;28;19915;-79
2021/09/14 05:26:35;;;;;;;;;;;;;;;9.86;100.00;93052.16;2106432;28;19973;-81
2021/09/14 05:27:36;;;;;;;;;;;;;;;9.88;100.00;93047.94;2118271;27;19908;-80
2021/09/14 05:28:36;;;;;;;;;;;;;;;9.90;100.00;93045.59;2123281;27;19936;-82
2021/09/14 05:29:37;;;;;;;;;;;;;;;9.97;100.00;93042.78;2131717;27;19917;-81
2021/09/14 05:30:38;;;;;;;;;;;;;;;9.94;100.00;93050.88;2141369;27;19918;-80
2021/09/14 05:31:39;;;;;;;;;;;;;;;9.94;100.00;93043.59;2140662;27;20402;-81
2021/09/14 05:32:39;;;;;;;;;;;;;;;9.99;100.00;93048.44;2132404;27;19907;-82
2021/09/14 05:33:40;;;;;;;;;;;;;;;10.02;100.00;93046.88;2132338;27;20516;-81
2021/09/14 05:34:41;;;;;;;;;;;;;;;10.01;100.00;93045.38;2122052;27;20006;-84
2021/09/14 05:35:46;;;;;;;;;;;;;;;9.97;100.00;93044.72;2110478;28;20384;-79
2021/09/14 05:36:46;;;;;;;;;;;;;;;9.96;100.00;93046.59;2118322;27;19912;-79
2021/09/14 05:37:47;;;;;;;;;;;;;;;9.95;100.00;93047.03;2121425;27;19914;-79
2021/09/14 05:38:48;;;;;;;;;;;;;;;10.00;100.00;93049.94;2113957;28;19928;-81
2021/09/14 05:39:49;;;;;;;;;;;;;;;9.99;100.00;93053.03;2105791;28;20354;-84
2021/09/14 05:40:53;;;;;;;;;;;;;;;10.05;100.00;93046.03;2106809;28;19912;-82
2021/09/14 05:41:54;;;;;;;;;;;;;;;10.06;100.00;93052.91;2099747;28;19908;-78
2021/09/14 05:42:55;;;;;;;;;;;;;;;10.12;100.00;93055.84;2107559;28;19908;-82
2021/09/14 05:43:55;;;;;;;;;;;;;;;10.09;100.00;93054.72;2122975;27;20368;-80
2021/09/14 05:44:56;;;;;;;;;;;;;;;10.11;100.00;93055.09;2123029;27;19953;-77
2021/09/14 05:45:57;;;;;;;;;;;;;;;10.21;100.00;93056.03;2122298;27;19907;-81
2021/09/14 05:46:58;;;;;;;;;;;;;;;10.22;100.00;93049.50;2127808;27;20470;-83
2021/09/14 05:47:59;;;;;;;;;;;;;;;10.20;100.00;93054.53;2114491;28;19962;-81
2021/09/14 05:49:00;;;;;;;;;;;;;;;10.27;100.00;93059.72;2102921;28;20003;-81
2021/09/14 05:50:01;;;;;;;;;;;;;;;10.31;100.00;93055.06;2105949;28;19911;-80
2021/09/14 05:51:02;;;;;;;;;;;;;;;10.22;100.00;93054.84;2114379;28;19912;-80
2021/09/14 05:52:04;;;;;;;;;;;;;;;10.25;100.00;93060.16;2114482;28;19907;-81
2021/09/14 05:53:04;;;;;;;;;;;;;;;10.31;100.00;93058.47;2122742;27;20299;-79
2021/09/14 05:54:05;;;;;;;;;;;;;;;10.37;100.00;93050.00;2132146;27;19953;-80